sensor_id;sensor_type;location;lat;lon;timestamp;P1;durP1;ratioP1;P2;durP2;ratioP2
61903;SDS011;47857;52.270;6.804;2023-04-24T00:00:16;4.57;;;3.03;;
61903;SDS011;47857;52.270;6.804;2023-04-24T00:02:43;3.47;;;3.17;;
61903;SDS011;47857;52.270;6.804;2023-04-24T00:05:15;3.70;;;3.22;;
61903;SDS011;47857;52.270;6.804;2023-04-24T00:07:42;4.05;;;3.33;;
61903;SDS011;47857;52.270;6.804;2023-04-24T00:10:09;3.60;;;3.30;;
61903;SDS011;47857;52.270;6.804;2023-04-24T00:12:34;5.43;;;3.50;;
61903;SDS011;47857;52.270;6.804;2023-04-24T00:15:00;4.25;;;3.85;;
61903;SDS011;47857;52.270;6.804;2023-04-24T00:17:26;6.07;;;3.85;;
61903;SDS011;47857;52.270;6.804;2023-04-24T00:19:51;5.25;;;4.15;;
61903;SDS011;47857;52.270;6.804;2023-04-24T00:22:23;4.68;;;4.18;;
61903;SDS011;47857;52.270;6.804;2023-04-24T00:24:49;4.53;;;4.03;;
61903;SDS011;47857;52.270;6.804;2023-04-24T00:27:15;4.53;;;4.03;;
61903;SDS011;47857;52.270;6.804;2023-04-24T00:29:40;4.65;;;4.18;;
61903;SDS011;47857;52.270;6.804;2023-04-24T00:32:06;5.20;;;4.68;;
61903;SDS011;47857;52.270;6.804;2023-04-24T00:34:31;5.93;;;4.53;;
61903;SDS011;47857;52.270;6.804;2023-04-24T00:36:57;5.75;;;4.75;;
61903;SDS011;47857;52.270;6.804;2023-04-24T00:39:23;5.43;;;4.80;;
61903;SDS011;47857;52.270;6.804;2023-04-24T00:41:49;6.65;;;5.10;;
61903;SDS011;47857;52.270;6.804;2023-04-24T00:44:16;6.30;;;5.30;;
61903;SDS011;47857;52.270;6.804;2023-04-24T00:46:42;6.22;;;4.90;;
61903;SDS011;47857;52.270;6.804;2023-04-24T00:49:08;6.03;;;5.43;;
61903;SDS011;47857;52.270;6.804;2023-04-24T00:51:33;6.72;;;5.10;;
61903;SDS011;47857;52.270;6.804;2023-04-24T00:54:00;8.00;;;5.07;;
61903;SDS011;47857;52.270;6.804;2023-04-24T00:56:26;6.55;;;5.85;;
61903;SDS011;47857;52.270;6.804;2023-04-24T00:58:52;8.23;;;6.97;;
61903;SDS011;47857;52.270;6.804;2023-04-24T01:01:21;8.30;;;6.80;;
61903;SDS011;47857;52.270;6.804;2023-04-24T01:03:47;8.75;;;7.40;;
61903;SDS011;47857;52.270;6.804;2023-04-24T01:06:15;8.07;;;7.00;;
61903;SDS011;47857;52.270;6.804;2023-04-24T01:08:42;8.38;;;7.30;;
61903;SDS011;47857;52.270;6.804;2023-04-24T01:11:07;8.75;;;7.40;;
61903;SDS011;47857;52.270;6.804;2023-04-24T01:13:33;8.88;;;7.55;;
61903;SDS011;47857;52.270;6.804;2023-04-24T01:15:59;9.70;;;8.23;;
61903;SDS011;47857;52.270;6.804;2023-04-24T01:18:26;9.68;;;8.52;;
61903;SDS011;47857;52.270;6.804;2023-04-24T01:20:53;10.25;;;8.45;;
61903;SDS011;47857;52.270;6.804;2023-04-24T01:23:19;12.93;;;10.15;;
61903;SDS011;47857;52.270;6.804;2023-04-24T01:25:45;13.13;;;10.50;;
61903;SDS011;47857;52.270;6.804;2023-04-24T01:28:10;11.23;;;9.75;;
61903;SDS011;47857;52.270;6.804;2023-04-24T01:30:37;12.30;;;11.02;;
61903;SDS011;47857;52.270;6.804;2023-04-24T01:33:03;11.48;;;10.38;;
61903;SDS011;47857;52.270;6.804;2023-04-24T01:35:28;12.85;;;10.88;;
61903;SDS011;47857;52.270;6.804;2023-04-24T01:37:54;10.52;;;9.43;;
61903;SDS011;47857;52.270;6.804;2023-04-24T01:40:20;12.90;;;10.77;;
61903;SDS011;47857;52.270;6.804;2023-04-24T01:42:45;11.18;;;9.65;;
61903;SDS011;47857;52.270;6.804;2023-04-24T01:45:11;10.43;;;9.38;;
61903;SDS011;47857;52.270;6.804;2023-04-24T01:47:38;10.45;;;9.10;;
61903;SDS011;47857;52.270;6.804;2023-04-24T01:50:04;10.32;;;8.95;;
61903;SDS011;47857;52.270;6.804;2023-04-24T01:52:30;10.38;;;9.00;;
61903;SDS011;47857;52.270;6.804;2023-04-24T01:55:02;11.68;;;8.57;;
61903;SDS011;47857;52.270;6.804;2023-04-24T01:57:29;11.70;;;8.65;;
61903;SDS011;47857;52.270;6.804;2023-04-24T01:59:55;9.88;;;8.10;;
61903;SDS011;47857;52.270;6.804;2023-04-24T02:02:21;9.77;;;7.78;;
61903;SDS011;47857;52.270;6.804;2023-04-24T02:04:49;10.65;;;8.13;;
61903;SDS011;47857;52.270;6.804;2023-04-24T02:07:15;9.10;;;8.05;;
61903;SDS011;47857;52.270;6.804;2023-04-24T02:09:40;9.07;;;7.60;;
61903;SDS011;47857;52.270;6.804;2023-04-24T02:12:06;8.55;;;7.65;;
61903;SDS011;47857;52.270;6.804;2023-04-24T02:14:32;9.38;;;8.30;;
61903;SDS011;47857;52.270;6.804;2023-04-24T02:16:58;12.13;;;8.13;;
61903;SDS011;47857;52.270;6.804;2023-04-24T02:19:23;10.05;;;8.48;;
61903;SDS011;47857;52.270;6.804;2023-04-24T02:21:49;10.73;;;8.50;;
61903;SDS011;47857;52.270;6.804;2023-04-24T02:24:15;11.20;;;8.80;;
61903;SDS011;47857;52.270;6.804;2023-04-24T02:26:41;11.52;;;9.35;;
61903;SDS011;47857;52.270;6.804;2023-04-24T02:29:07;12.38;;;9.60;;
61903;SDS011;47857;52.270;6.804;2023-04-24T02:31:32;12.50;;;9.32;;
61903;SDS011;47857;52.270;6.804;2023-04-24T02:33:58;11.73;;;9.50;;
61903;SDS011;47857;52.270;6.804;2023-04-24T02:36:23;12.77;;;10.32;;
61903;SDS011;47857;52.270;6.804;2023-04-24T02:38:49;13.70;;;10.23;;
61903;SDS011;47857;52.270;6.804;2023-04-24T02:41:14;15.48;;;10.77;;
61903;SDS011;47857;52.270;6.804;2023-04-24T02:43:41;12.52;;;10.93;;
61903;SDS011;47857;52.270;6.804;2023-04-24T02:46:07;15.48;;;11.55;;
61903;SDS011;47857;52.270;6.804;2023-04-24T02:48:32;14.10;;;11.07;;
61903;SDS011;47857;52.270;6.804;2023-04-24T02:50:58;14.55;;;11.73;;
61903;SDS011;47857;52.270;6.804;2023-04-24T02:53:23;16.08;;;12.55;;
61903;SDS011;47857;52.270;6.804;2023-04-24T02:55:49;14.95;;;11.90;;
61903;SDS011;47857;52.270;6.804;2023-04-24T02:58:15;17.17;;;12.18;;
61903;SDS011;47857;52.270;6.804;2023-04-24T03:00:41;16.20;;;12.23;;
61903;SDS011;47857;52.270;6.804;2023-04-24T03:03:06;17.25;;;11.60;;
61903;SDS011;47857;52.270;6.804;2023-04-24T03:05:32;14.40;;;11.63;;
61903;SDS011;47857;52.270;6.804;2023-04-24T03:07:57;18.08;;;12.27;;
61903;SDS011;47857;52.270;6.804;2023-04-24T03:10:23;16.75;;;12.55;;
61903;SDS011;47857;52.270;6.804;2023-04-24T03:12:48;19.92;;;13.50;;
61903;SDS011;47857;52.270;6.804;2023-04-24T03:15:14;16.73;;;12.63;;
61903;SDS011;47857;52.270;6.804;2023-04-24T03:17:40;18.05;;;12.48;;
61903;SDS011;47857;52.270;6.804;2023-04-24T03:20:06;18.33;;;13.15;;
61903;SDS011;47857;52.270;6.804;2023-04-24T03:22:34;16.58;;;12.57;;
61903;SDS011;47857;52.270;6.804;2023-04-24T03:25:02;15.65;;;12.98;;
61903;SDS011;47857;52.270;6.804;2023-04-24T03:27:28;15.82;;;12.38;;
61903;SDS011;47857;52.270;6.804;2023-04-24T03:29:58;17.35;;;12.88;;
61903;SDS011;47857;52.270;6.804;2023-04-24T03:32:47;16.63;;;12.55;;
61903;SDS011;47857;52.270;6.804;2023-04-24T03:35:18;16.60;;;12.48;;
61903;SDS011;47857;52.270;6.804;2023-04-24T03:37:43;15.88;;;11.88;;
61903;SDS011;47857;52.270;6.804;2023-04-24T03:40:28;17.05;;;12.40;;
61903;SDS011;47857;52.270;6.804;2023-04-24T03:42:55;15.05;;;11.25;;
61903;SDS011;47857;52.270;6.804;2023-04-24T03:45:21;14.55;;;11.80;;
61903;SDS011;47857;52.270;6.804;2023-04-24T03:47:49;15.40;;;10.77;;
61903;SDS011;47857;52.270;6.804;2023-04-24T03:50:15;15.93;;;11.30;;
61903;SDS011;47857;52.270;6.804;2023-04-24T03:52:42;16.05;;;11.70;;
61903;SDS011;47857;52.270;6.804;2023-04-24T03:55:09;14.43;;;11.13;;
61903;SDS011;47857;52.270;6.804;2023-04-24T03:57:42;14.13;;;11.13;;
61903;SDS011;47857;52.270;6.804;2023-04-24T04:00:17;15.63;;;12.38;;
61903;SDS011;47857;52.270;6.804;2023-04-24T04:02:48;17.10;;;12.45;;
61903;SDS011;47857;52.270;6.804;2023-04-24T04:05:13;16.50;;;12.85;;
61903;SDS011;47857;52.270;6.804;2023-04-24T04:07:40;16.00;;;12.50;;
61903;SDS011;47857;52.270;6.804;2023-04-24T04:10:06;17.27;;;12.65;;
61903;SDS011;47857;52.270;6.804;2023-04-24T04:12:34;17.42;;;13.63;;
61903;SDS011;47857;52.270;6.804;2023-04-24T04:14:59;19.25;;;13.48;;
61903;SDS011;47857;52.270;6.804;2023-04-24T04:17:25;16.48;;;13.48;;
61903;SDS011;47857;52.270;6.804;2023-04-24T04:19:51;18.67;;;13.68;;
61903;SDS011;47857;52.270;6.804;2023-04-24T04:22:17;19.42;;;15.07;;
61903;SDS011;47857;52.270;6.804;2023-04-24T04:24:46;20.27;;;15.65;;
61903;SDS011;47857;52.270;6.804;2023-04-24T04:27:12;21.33;;;15.50;;
61903;SDS011;47857;52.270;6.804;2023-04-24T04:29:46;21.75;;;15.88;;
61903;SDS011;47857;52.270;6.804;2023-04-24T04:32:13;19.73;;;15.80;;
61903;SDS011;47857;52.270;6.804;2023-04-24T04:34:40;21.33;;;15.98;;
61903;SDS011;47857;52.270;6.804;2023-04-24T04:37:09;19.48;;;16.40;;
61903;SDS011;47857;52.270;6.804;2023-04-24T04:39:51;22.17;;;17.27;;
61903;SDS011;47857;52.270;6.804;2023-04-24T04:42:22;25.48;;;18.45;;
61903;SDS011;47857;52.270;6.804;2023-04-24T04:44:49;25.20;;;18.95;;
61903;SDS011;47857;52.270;6.804;2023-04-24T04:47:18;27.25;;;19.15;;
61903;SDS011;47857;52.270;6.804;2023-04-24T04:49:47;24.08;;;19.95;;
61903;SDS011;47857;52.270;6.804;2023-04-24T04:52:20;25.83;;;19.92;;
61903;SDS011;47857;52.270;6.804;2023-04-24T04:54:52;26.85;;;21.33;;
61903;SDS011;47857;52.270;6.804;2023-04-24T04:57:21;24.63;;;19.80;;
61903;SDS011;47857;52.270;6.804;2023-04-24T04:59:47;24.92;;;20.17;;
61903;SDS011;47857;52.270;6.804;2023-04-24T05:02:29;25.45;;;18.90;;
61903;SDS011;47857;52.270;6.804;2023-04-24T05:04:55;22.58;;;19.67;;
61903;SDS011;47857;52.270;6.804;2023-04-24T05:07:21;27.80;;;21.40;;
61903;SDS011;47857;52.270;6.804;2023-04-24T05:09:50;27.25;;;21.00;;
61903;SDS011;47857;52.270;6.804;2023-04-24T05:12:16;26.90;;;20.23;;
61903;SDS011;47857;52.270;6.804;2023-04-24T05:14:49;24.63;;;19.52;;
61903;SDS011;47857;52.270;6.804;2023-04-24T05:17:15;25.92;;;19.88;;
61903;SDS011;47857;52.270;6.804;2023-04-24T05:19:41;24.88;;;20.35;;
61903;SDS011;47857;52.270;6.804;2023-04-24T05:22:07;28.23;;;20.27;;
61903;SDS011;47857;52.270;6.804;2023-04-24T05:24:41;25.42;;;19.65;;
61903;SDS011;47857;52.270;6.804;2023-04-24T05:27:19;29.70;;;19.63;;
61903;SDS011;47857;52.270;6.804;2023-04-24T05:29:47;26.50;;;19.45;;
61903;SDS011;47857;52.270;6.804;2023-04-24T05:32:13;24.13;;;19.83;;
61903;SDS011;47857;52.270;6.804;2023-04-24T05:34:39;27.17;;;20.02;;
61903;SDS011;47857;52.270;6.804;2023-04-24T05:37:04;24.17;;;19.02;;
61903;SDS011;47857;52.270;6.804;2023-04-24T05:39:33;27.70;;;19.20;;
61903;SDS011;47857;52.270;6.804;2023-04-24T05:42:00;24.33;;;19.25;;
61903;SDS011;47857;52.270;6.804;2023-04-24T05:44:26;27.35;;;20.20;;
61903;SDS011;47857;52.270;6.804;2023-04-24T05:46:52;23.05;;;18.33;;
61903;SDS011;47857;52.270;6.804;2023-04-24T05:49:17;23.27;;;17.25;;
61903;SDS011;47857;52.270;6.804;2023-04-24T05:51:44;22.98;;;17.77;;
61903;SDS011;47857;52.270;6.804;2023-04-24T05:54:10;26.88;;;18.20;;
61903;SDS011;47857;52.270;6.804;2023-04-24T05:56:37;19.55;;;16.17;;
61903;SDS011;47857;52.270;6.804;2023-04-24T05:59:05;36.65;;;25.08;;
61903;SDS011;47857;52.270;6.804;2023-04-24T06:01:31;27.38;;;18.58;;
61903;SDS011;47857;52.270;6.804;2023-04-24T06:04:05;27.77;;;19.95;;
61903;SDS011;47857;52.270;6.804;2023-04-24T06:06:31;26.73;;;19.67;;
61903;SDS011;47857;52.270;6.804;2023-04-24T06:08:58;30.92;;;22.35;;
61903;SDS011;47857;52.270;6.804;2023-04-24T06:11:25;26.05;;;19.20;;
61903;SDS011;47857;52.270;6.804;2023-04-24T06:13:51;24.15;;;17.38;;
61903;SDS011;47857;52.270;6.804;2023-04-24T06:16:35;20.70;;;16.20;;
61903;SDS011;47857;52.270;6.804;2023-04-24T06:19:08;20.85;;;16.50;;
61903;SDS011;47857;52.270;6.804;2023-04-24T06:21:34;23.38;;;16.48;;
61903;SDS011;47857;52.270;6.804;2023-04-24T06:24:00;22.25;;;15.95;;
61903;SDS011;47857;52.270;6.804;2023-04-24T06:26:26;22.80;;;16.50;;
61903;SDS011;47857;52.270;6.804;2023-04-24T06:28:52;22.17;;;16.52;;
61903;SDS011;47857;52.270;6.804;2023-04-24T06:31:19;23.83;;;16.60;;
61903;SDS011;47857;52.270;6.804;2023-04-24T06:33:45;22.73;;;16.42;;
61903;SDS011;47857;52.270;6.804;2023-04-24T06:36:11;23.33;;;16.33;;
61903;SDS011;47857;52.270;6.804;2023-04-24T06:38:37;22.35;;;15.98;;
61903;SDS011;47857;52.270;6.804;2023-04-24T06:41:03;22.13;;;15.93;;
61903;SDS011;47857;52.270;6.804;2023-04-24T06:43:30;19.65;;;14.40;;
61903;SDS011;47857;52.270;6.804;2023-04-24T06:45:57;18.98;;;14.68;;
61903;SDS011;47857;52.270;6.804;2023-04-24T06:48:23;24.45;;;15.25;;
61903;SDS011;47857;52.270;6.804;2023-04-24T06:50:49;21.27;;;15.07;;
61903;SDS011;47857;52.270;6.804;2023-04-24T06:53:14;20.98;;;14.95;;
61903;SDS011;47857;52.270;6.804;2023-04-24T06:55:40;23.30;;;14.73;;
61903;SDS011;47857;52.270;6.804;2023-04-24T06:58:06;22.27;;;15.20;;
61903;SDS011;47857;52.270;6.804;2023-04-24T07:00:31;20.75;;;15.00;;
61903;SDS011;47857;52.270;6.804;2023-04-24T07:02:57;22.00;;;15.60;;
61903;SDS011;47857;52.270;6.804;2023-04-24T07:05:23;18.85;;;13.80;;
61903;SDS011;47857;52.270;6.804;2023-04-24T07:07:48;21.02;;;14.80;;
61903;SDS011;47857;52.270;6.804;2023-04-24T07:10:15;20.48;;;14.68;;
61903;SDS011;47857;52.270;6.804;2023-04-24T07:12:41;21.02;;;14.10;;
61903;SDS011;47857;52.270;6.804;2023-04-24T07:15:07;19.67;;;13.88;;
61903;SDS011;47857;52.270;6.804;2023-04-24T07:17:33;19.80;;;13.80;;
61903;SDS011;47857;52.270;6.804;2023-04-24T07:19:59;18.25;;;12.40;;
61903;SDS011;47857;52.270;6.804;2023-04-24T07:22:25;16.08;;;12.50;;
61903;SDS011;47857;52.270;6.804;2023-04-24T07:24:51;21.33;;;13.38;;
61903;SDS011;47857;52.270;6.804;2023-04-24T07:27:16;20.33;;;14.10;;
61903;SDS011;47857;52.270;6.804;2023-04-24T07:29:42;18.80;;;14.25;;
61903;SDS011;47857;52.270;6.804;2023-04-24T07:32:08;18.25;;;12.75;;
61903;SDS011;47857;52.270;6.804;2023-04-24T07:34:34;20.17;;;12.95;;
61903;SDS011;47857;52.270;6.804;2023-04-24T07:37:00;16.02;;;12.70;;
61903;SDS011;47857;52.270;6.804;2023-04-24T07:39:25;17.23;;;12.60;;
61903;SDS011;47857;52.270;6.804;2023-04-24T07:41:51;16.85;;;12.15;;
61903;SDS011;47857;52.270;6.804;2023-04-24T07:44:17;15.25;;;11.15;;
61903;SDS011;47857;52.270;6.804;2023-04-24T07:46:42;14.98;;;10.98;;
61903;SDS011;47857;52.270;6.804;2023-04-24T07:49:08;14.82;;;11.63;;
61903;SDS011;47857;52.270;6.804;2023-04-24T07:51:33;13.77;;;10.23;;
61903;SDS011;47857;52.270;6.804;2023-04-24T07:54:03;12.50;;;9.80;;
61903;SDS011;47857;52.270;6.804;2023-04-24T07:56:31;11.57;;;9.02;;
61903;SDS011;47857;52.270;6.804;2023-04-24T07:58:56;11.52;;;8.98;;
61903;SDS011;47857;52.270;6.804;2023-04-24T08:01:22;12.55;;;9.63;;
61903;SDS011;47857;52.270;6.804;2023-04-24T08:03:48;13.70;;;9.55;;
61903;SDS011;47857;52.270;6.804;2023-04-24T08:06:13;12.35;;;9.25;;
61903;SDS011;47857;52.270;6.804;2023-04-24T08:08:39;10.18;;;8.77;;
61903;SDS011;47857;52.270;6.804;2023-04-24T08:11:04;11.55;;;9.10;;
61903;SDS011;47857;52.270;6.804;2023-04-24T08:13:30;11.27;;;9.30;;
61903;SDS011;47857;52.270;6.804;2023-04-24T08:15:56;14.07;;;9.65;;
61903;SDS011;47857;52.270;6.804;2023-04-24T08:18:21;11.05;;;9.27;;
61903;SDS011;47857;52.270;6.804;2023-04-24T08:20:47;12.23;;;9.75;;
61903;SDS011;47857;52.270;6.804;2023-04-24T08:23:13;12.38;;;9.50;;
61903;SDS011;47857;52.270;6.804;2023-04-24T08:25:39;11.23;;;8.60;;
61903;SDS011;47857;52.270;6.804;2023-04-24T08:28:05;9.85;;;8.70;;
61903;SDS011;47857;52.270;6.804;2023-04-24T08:30:31;11.30;;;8.68;;
61903;SDS011;47857;52.270;6.804;2023-04-24T08:32:57;11.48;;;8.70;;
61903;SDS011;47857;52.270;6.804;2023-04-24T08:35:22;12.27;;;8.68;;
61903;SDS011;47857;52.270;6.804;2023-04-24T08:37:48;11.23;;;7.57;;
61903;SDS011;47857;52.270;6.804;2023-04-24T08:40:14;10.32;;;6.90;;
61903;SDS011;47857;52.270;6.804;2023-04-24T08:42:43;9.40;;;7.15;;
61903;SDS011;47857;52.270;6.804;2023-04-24T08:45:12;7.75;;;5.82;;
61903;SDS011;47857;52.270;6.804;2023-04-24T08:47:39;8.00;;;6.05;;
61903;SDS011;47857;52.270;6.804;2023-04-24T08:50:05;10.07;;;6.35;;
61903;SDS011;47857;52.270;6.804;2023-04-24T08:52:32;8.30;;;6.35;;
61903;SDS011;47857;52.270;6.804;2023-04-24T08:54:59;8.13;;;6.22;;
61903;SDS011;47857;52.270;6.804;2023-04-24T08:57:25;8.43;;;6.05;;
61903;SDS011;47857;52.270;6.804;2023-04-24T08:59:51;7.97;;;6.07;;
61903;SDS011;47857;52.270;6.804;2023-04-24T09:02:17;6.55;;;5.40;;
61903;SDS011;47857;52.270;6.804;2023-04-24T09:04:43;5.25;;;4.63;;
61903;SDS011;47857;52.270;6.804;2023-04-24T09:07:09;5.53;;;4.22;;
61903;SDS011;47857;52.270;6.804;2023-04-24T09:09:35;8.63;;;4.25;;
61903;SDS011;47857;52.270;6.804;2023-04-24T09:12:03;5.25;;;4.10;;
61903;SDS011;47857;52.270;6.804;2023-04-24T09:14:28;6.07;;;2.80;;
61903;SDS011;47857;52.270;6.804;2023-04-24T09:16:56;3.45;;;2.95;;
61903;SDS011;47857;52.270;6.804;2023-04-24T09:19:22;3.88;;;2.60;;
61903;SDS011;47857;52.270;6.804;2023-04-24T09:21:47;6.03;;;2.13;;
61903;SDS011;47857;52.270;6.804;2023-04-24T09:24:17;4.93;;;2.80;;
61903;SDS011;47857;52.270;6.804;2023-04-24T09:26:45;4.50;;;3.20;;
61903;SDS011;47857;52.270;6.804;2023-04-24T09:29:19;5.97;;;3.65;;
61903;SDS011;47857;52.270;6.804;2023-04-24T09:31:45;7.88;;;4.95;;
61903;SDS011;47857;52.270;6.804;2023-04-24T09:34:11;7.95;;;5.45;;
61903;SDS011;47857;52.270;6.804;2023-04-24T09:36:42;11.80;;;6.60;;
61903;SDS011;47857;52.270;6.804;2023-04-24T09:39:09;11.85;;;7.00;;
61903;SDS011;47857;52.270;6.804;2023-04-24T09:41:45;12.40;;;7.07;;
61903;SDS011;47857;52.270;6.804;2023-04-24T09:44:19;12.52;;;7.78;;
61903;SDS011;47857;52.270;6.804;2023-04-24T09:49:24;13.80;;;8.63;;
61903;SDS011;47857;52.270;6.804;2023-04-24T09:51:51;13.77;;;9.07;;
61903;SDS011;47857;52.270;6.804;2023-04-24T09:54:18;17.25;;;10.45;;
61903;SDS011;47857;52.270;6.804;2023-04-24T09:56:48;20.73;;;10.70;;
61903;SDS011;47857;52.270;6.804;2023-04-24T09:59:15;15.93;;;9.45;;
61903;SDS011;47857;52.270;6.804;2023-04-24T10:01:42;21.27;;;10.68;;
61903;SDS011;47857;52.270;6.804;2023-04-24T10:06:42;18.23;;;9.98;;
61903;SDS011;47857;52.270;6.804;2023-04-24T10:09:08;14.40;;;9.65;;
61903;SDS011;47857;52.270;6.804;2023-04-24T10:11:36;22.58;;;11.13;;
61903;SDS011;47857;52.270;6.804;2023-04-24T10:14:02;14.82;;;9.90;;
61903;SDS011;47857;52.270;6.804;2023-04-24T10:16:27;14.38;;;9.95;;
61903;SDS011;47857;52.270;6.804;2023-04-24T10:18:53;15.68;;;9.25;;
61903;SDS011;47857;52.270;6.804;2023-04-24T10:21:19;19.00;;;9.73;;
61903;SDS011;47857;52.270;6.804;2023-04-24T10:23:45;17.77;;;9.45;;
61903;SDS011;47857;52.270;6.804;2023-04-24T10:26:14;15.18;;;8.40;;
61903;SDS011;47857;52.270;6.804;2023-04-24T10:28:45;16.42;;;8.38;;
61903;SDS011;47857;52.270;6.804;2023-04-24T10:31:12;17.55;;;9.50;;
61903;SDS011;47857;52.270;6.804;2023-04-24T10:33:38;13.95;;;8.32;;
61903;SDS011;47857;52.270;6.804;2023-04-24T10:36:11;18.35;;;8.13;;
61903;SDS011;47857;52.270;6.804;2023-04-24T10:38:38;11.27;;;6.72;;
61903;SDS011;47857;52.270;6.804;2023-04-24T10:41:09;16.58;;;8.05;;
61903;SDS011;47857;52.270;6.804;2023-04-24T10:43:41;14.90;;;8.02;;
61903;SDS011;47857;52.270;6.804;2023-04-24T10:46:07;11.73;;;6.45;;
61903;SDS011;47857;52.270;6.804;2023-04-24T10:48:35;11.85;;;4.90;;
61903;SDS011;47857;52.270;6.804;2023-04-24T10:51:01;10.02;;;5.20;;
61903;SDS011;47857;52.270;6.804;2023-04-24T10:53:28;12.02;;;4.10;;
61903;SDS011;47857;52.270;6.804;2023-04-24T10:56:08;7.68;;;2.75;;
61903;SDS011;47857;52.270;6.804;2023-04-24T10:58:42;9.45;;;3.53;;
61903;SDS011;47857;52.270;6.804;2023-04-24T11:01:22;9.52;;;3.38;;
61903;SDS011;47857;52.270;6.804;2023-04-24T11:04:02;11.20;;;3.63;;
61903;SDS011;47857;52.270;6.804;2023-04-24T11:06:31;11.07;;;3.28;;
61903;SDS011;47857;52.270;6.804;2023-04-24T11:09:06;11.68;;;3.42;;
61903;SDS011;47857;52.270;6.804;2023-04-24T11:11:34;11.35;;;2.80;;
61903;SDS011;47857;52.270;6.804;2023-04-24T11:14:02;10.45;;;3.15;;
61903;SDS011;47857;52.270;6.804;2023-04-24T11:21:45;11.88;;;3.50;;
61903;SDS011;47857;52.270;6.804;2023-04-24T11:27:14;12.93;;;3.22;;
61903;SDS011;47857;52.270;6.804;2023-04-24T11:29:47;17.15;;;3.72;;
61903;SDS011;47857;52.270;6.804;2023-04-24T11:34:52;17.15;;;3.35;;
61903;SDS011;47857;52.270;6.804;2023-04-24T11:37:22;15.90;;;3.60;;
61903;SDS011;47857;52.270;6.804;2023-04-24T11:39:53;19.08;;;3.97;;
61903;SDS011;47857;52.270;6.804;2023-04-24T11:42:20;15.48;;;3.67;;
61903;SDS011;47857;52.270;6.804;2023-04-24T11:44:47;15.43;;;3.67;;
61903;SDS011;47857;52.270;6.804;2023-04-24T11:47:13;11.05;;;2.90;;
61903;SDS011;47857;52.270;6.804;2023-04-24T11:49:38;12.52;;;2.95;;
61903;SDS011;47857;52.270;6.804;2023-04-24T11:52:04;11.15;;;2.85;;
61903;SDS011;47857;52.270;6.804;2023-04-24T11:54:30;10.15;;;2.78;;
61903;SDS011;47857;52.270;6.804;2023-04-24T11:56:56;9.95;;;2.60;;
61903;SDS011;47857;52.270;6.804;2023-04-24T11:59:22;11.85;;;2.63;;
61903;SDS011;47857;52.270;6.804;2023-04-24T12:01:48;10.75;;;2.83;;
61903;SDS011;47857;52.270;6.804;2023-04-24T12:04:14;15.80;;;2.70;;
61903;SDS011;47857;52.270;6.804;2023-04-24T12:07:03;8.38;;;2.47;;
61903;SDS011;47857;52.270;6.804;2023-04-24T12:12:08;6.65;;;2.40;;
61903;SDS011;47857;52.270;6.804;2023-04-24T12:17:26;8.70;;;2.05;;
61903;SDS011;47857;52.270;6.804;2023-04-24T12:19:59;10.20;;;2.47;;
61903;SDS011;47857;52.270;6.804;2023-04-24T12:22:26;6.55;;;2.13;;
61903;SDS011;47857;52.270;6.804;2023-04-24T12:24:55;9.85;;;2.58;;
61903;SDS011;47857;52.270;6.804;2023-04-24T12:27:22;8.25;;;2.42;;
61903;SDS011;47857;52.270;6.804;2023-04-24T12:29:51;9.73;;;2.33;;
61903;SDS011;47857;52.270;6.804;2023-04-24T12:32:19;7.63;;;2.05;;
61903;SDS011;47857;52.270;6.804;2023-04-24T12:34:45;10.02;;;2.10;;
61903;SDS011;47857;52.270;6.804;2023-04-24T12:37:11;10.00;;;2.10;;
61903;SDS011;47857;52.270;6.804;2023-04-24T12:39:37;12.75;;;2.33;;
61903;SDS011;47857;52.270;6.804;2023-04-24T12:42:02;9.55;;;2.38;;
61903;SDS011;47857;52.270;6.804;2023-04-24T12:44:32;13.65;;;2.40;;
61903;SDS011;47857;52.270;6.804;2023-04-24T12:46:59;8.07;;;2.25;;
61903;SDS011;47857;52.270;6.804;2023-04-24T12:49:25;9.88;;;2.60;;
61903;SDS011;47857;52.270;6.804;2023-04-24T12:51:51;13.25;;;2.80;;
61903;SDS011;47857;52.270;6.804;2023-04-24T12:54:17;10.48;;;2.42;;
61903;SDS011;47857;52.270;6.804;2023-04-24T12:56:42;12.02;;;2.95;;
61903;SDS011;47857;52.270;6.804;2023-04-24T12:59:08;7.88;;;2.22;;
61903;SDS011;47857;52.270;6.804;2023-04-24T13:01:33;7.68;;;2.50;;
61903;SDS011;47857;52.270;6.804;2023-04-24T13:03:59;6.05;;;2.50;;
61903;SDS011;47857;52.270;6.804;2023-04-24T13:06:24;8.43;;;2.70;;
61903;SDS011;47857;52.270;6.804;2023-04-24T13:08:51;8.48;;;2.40;;
61903;SDS011;47857;52.270;6.804;2023-04-24T13:11:17;6.57;;;1.90;;
61903;SDS011;47857;52.270;6.804;2023-04-24T13:13:43;7.90;;;1.60;;
61903;SDS011;47857;52.270;6.804;2023-04-24T13:16:08;7.20;;;1.38;;
61903;SDS011;47857;52.270;6.804;2023-04-24T13:18:34;5.32;;;1.92;;
61903;SDS011;47857;52.270;6.804;2023-04-24T13:20:59;7.82;;;2.35;;
61903;SDS011;47857;52.270;6.804;2023-04-24T13:23:25;8.10;;;2.05;;
61903;SDS011;47857;52.270;6.804;2023-04-24T13:25:51;8.60;;;2.70;;
61903;SDS011;47857;52.270;6.804;2023-04-24T13:28:16;6.57;;;1.90;;
61903;SDS011;47857;52.270;6.804;2023-04-24T13:30:42;7.63;;;2.00;;
61903;SDS011;47857;52.270;6.804;2023-04-24T13:33:07;5.50;;;1.42;;
61903;SDS011;47857;52.270;6.804;2023-04-24T13:35:33;9.10;;;1.75;;
61903;SDS011;47857;52.270;6.804;2023-04-24T13:37:58;5.95;;;1.40;;
61903;SDS011;47857;52.270;6.804;2023-04-24T13:40:26;7.32;;;1.40;;
61903;SDS011;47857;52.270;6.804;2023-04-24T13:42:52;6.88;;;1.23;;
61903;SDS011;47857;52.270;6.804;2023-04-24T13:45:18;4.50;;;1.40;;
61903;SDS011;47857;52.270;6.804;2023-04-24T13:47:43;5.15;;;1.05;;
61903;SDS011;47857;52.270;6.804;2023-04-24T13:50:09;4.20;;;0.90;;
61903;SDS011;47857;52.270;6.804;2023-04-24T13:52:35;2.88;;;0.70;;
61903;SDS011;47857;52.270;6.804;2023-04-24T13:55:00;2.85;;;0.63;;
61903;SDS011;47857;52.270;6.804;2023-04-24T13:57:26;4.15;;;0.90;;
61903;SDS011;47857;52.270;6.804;2023-04-24T13:59:53;4.90;;;0.80;;
61903;SDS011;47857;52.270;6.804;2023-04-24T14:02:20;4.75;;;0.93;;
61903;SDS011;47857;52.270;6.804;2023-04-24T14:04:46;3.58;;;0.82;;
61903;SDS011;47857;52.270;6.804;2023-04-24T14:07:13;5.32;;;0.93;;
61903;SDS011;47857;52.270;6.804;2023-04-24T14:09:38;2.53;;;0.90;;
61903;SDS011;47857;52.270;6.804;2023-04-24T14:12:04;3.25;;;0.80;;
61903;SDS011;47857;52.270;6.804;2023-04-24T14:14:30;3.72;;;0.90;;
61903;SDS011;47857;52.270;6.804;2023-04-24T14:16:56;2.85;;;0.70;;
61903;SDS011;47857;52.270;6.804;2023-04-24T14:19:22;4.60;;;0.82;;
61903;SDS011;47857;52.270;6.804;2023-04-24T14:21:48;3.22;;;0.80;;
61903;SDS011;47857;52.270;6.804;2023-04-24T14:24:13;2.65;;;0.73;;
61903;SDS011;47857;52.270;6.804;2023-04-24T14:26:39;4.32;;;0.90;;
61903;SDS011;47857;52.270;6.804;2023-04-24T14:29:05;3.70;;;1.30;;
61903;SDS011;47857;52.270;6.804;2023-04-24T14:31:32;6.22;;;1.70;;
61903;SDS011;47857;52.270;6.804;2023-04-24T14:33:57;3.85;;;0.77;;
61903;SDS011;47857;52.270;6.804;2023-04-24T14:36:23;5.38;;;1.20;;
61903;SDS011;47857;52.270;6.804;2023-04-24T14:38:49;4.78;;;1.20;;
61903;SDS011;47857;52.270;6.804;2023-04-24T14:41:15;4.60;;;1.35;;
61903;SDS011;47857;52.270;6.804;2023-04-24T14:43:40;8.75;;;1.80;;
61903;SDS011;47857;52.270;6.804;2023-04-24T14:46:06;8.45;;;2.95;;
61903;SDS011;47857;52.270;6.804;2023-04-24T14:48:31;5.95;;;1.40;;
61903;SDS011;47857;52.270;6.804;2023-04-24T14:50:57;6.38;;;2.30;;
61903;SDS011;47857;52.270;6.804;2023-04-24T14:53:23;5.38;;;1.48;;